createdAt,value
2023-01-08T00:00:31.838Z,101408.03
2023-01-08T00:03:38.390Z,101403.00
2023-01-08T00:06:44.273Z,101382.81
2023-01-08T00:09:50.780Z,101381.97
2023-01-08T00:12:57.752Z,101388.78
2023-01-08T00:16:07.583Z,101373.56
2023-01-08T00:19:13.868Z,101374.44
2023-01-08T00:22:19.348Z,101371.00
2023-01-08T00:25:24.886Z,101360.16
2023-01-08T00:28:30.928Z,101358.56
2023-01-08T00:31:37.992Z,101338.28
2023-01-08T00:34:43.684Z,101340.06
2023-01-08T00:37:51.681Z,101333.41
2023-01-08T00:40:57.084Z,101342.56
2023-01-08T00:44:02.838Z,101331.66
2023-01-08T00:47:09.826Z,101324.16
2023-01-08T00:50:15.397Z,101326.69
2023-01-08T00:53:21.074Z,101318.25
2023-01-08T00:56:26.833Z,101319.13
2023-01-08T00:59:32.467Z,101313.31
2023-01-08T01:02:40.036Z,101316.66
2023-01-08T01:05:45.378Z,101302.34
2023-01-08T01:08:51.196Z,101303.16
2023-01-08T01:11:57.051Z,101301.47
2023-01-08T01:15:03.529Z,101295.56
2023-01-08T01:18:11.321Z,101291.34
2023-01-08T01:21:23.537Z,101293.94
2023-01-08T01:24:29.147Z,101278.78
2023-01-08T01:27:35.051Z,101279.59
2023-01-08T01:30:40.850Z,101268.63
2023-01-08T01:33:48.220Z,101278.72
2023-01-08T01:36:53.877Z,101267.81
2023-01-08T01:39:59.440Z,101262.00
2023-01-08T01:43:05.411Z,101267.00
2023-01-08T01:46:25.702Z,101255.19
2023-01-08T01:49:33.270Z,101250.16
2023-01-08T01:52:41.592Z,101247.66
2023-01-08T01:55:48.513Z,101241.81
2023-01-08T01:58:53.898Z,101249.38
2023-01-08T02:02:00.611Z,101237.63
2023-01-08T02:05:08.616Z,101232.59
2023-01-08T02:08:16.698Z,101242.66
2023-01-08T02:11:25.523Z,101239.38
2023-01-08T02:14:35.975Z,101230.13
2023-01-08T02:17:49.825Z,101221.72
2023-01-08T02:20:59.422Z,101216.81
2023-01-08T02:24:10.528Z,101200.00
2023-01-08T02:27:19.277Z,101212.56
2023-01-08T02:30:24.614Z,101205.78
2023-01-08T02:33:31.684Z,101199.03
2023-01-08T02:36:40.324Z,101205.00
2023-01-08T02:39:54.002Z,101192.41
2023-01-08T02:43:06.490Z,101186.56
2023-01-08T02:46:14.884Z,101177.28
2023-01-08T02:49:23.662Z,101178.97
2023-01-08T02:52:31.529Z,101171.38
2023-01-08T02:55:39.411Z,101178.97
2023-01-08T02:58:48.719Z,101170.53
2023-01-08T03:01:54.527Z,101168.88
2023-01-08T03:05:07.008Z,101169.72
2023-01-08T03:08:14.321Z,101169.72
2023-01-08T03:11:21.298Z,101158.00
2023-01-08T03:14:32.214Z,101156.31
2023-01-08T03:17:39.198Z,101144.50
2023-01-08T03:20:45.898Z,101139.44
2023-01-08T03:23:52.524Z,101144.53
2023-01-08T03:27:01.451Z,101127.75
2023-01-08T03:30:10.611Z,101125.19
2023-01-08T03:33:20.482Z,101130.31
2023-01-08T03:36:28.199Z,101130.28
2023-01-08T03:39:39.860Z,101126.06
2023-01-08T03:42:45.659Z,101119.25
2023-01-08T03:45:57.523Z,101118.41
2023-01-08T03:49:03.624Z,101110.94
2023-01-08T03:52:10.037Z,101112.59
2023-01-08T03:55:15.892Z,101108.41
2023-01-08T03:58:21.623Z,101104.22
2023-01-08T04:01:28.674Z,101098.31
2023-01-08T04:04:34.421Z,101096.66
2023-01-08T04:07:40.202Z,101102.50
2023-01-08T04:10:45.978Z,101105.94
2023-01-08T04:13:51.747Z,101097.47
2023-01-08T04:17:01.864Z,101097.56
2023-01-08T04:20:09.030Z,101093.38
2023-01-08T04:23:15.337Z,101092.53
2023-01-08T04:26:20.564Z,101100.13
2023-01-08T04:29:26.769Z,101087.53
2023-01-08T04:32:33.470Z,101092.59
2023-01-08T04:35:39.232Z,101096.75
2023-01-08T04:38:45.034Z,101094.25
2023-01-08T04:41:50.328Z,101084.19
2023-01-08T04:44:55.968Z,101089.22
2023-01-08T04:48:03.152Z,101077.44
2023-01-08T04:51:09.078Z,101067.31
2023-01-08T04:54:14.674Z,101070.69
2023-01-08T04:57:20.252Z,101061.44
2023-01-08T05:00:25.579Z,101060.63
2023-01-08T05:03:32.894Z,101055.56
2023-01-08T05:06:37.957Z,101047.97
2023-01-08T05:09:43.542Z,101047.13
2023-01-08T05:12:49.313Z,101037.03
2023-01-08T05:15:55.048Z,101038.72
2023-01-08T05:19:02.329Z,101053.06
2023-01-08T05:22:07.878Z,101043.81
2023-01-08T05:25:14.013Z,101030.34
2023-01-08T05:28:29.477Z,101014.31
2023-01-08T05:31:35.031Z,101017.66
2023-01-08T05:34:42.152Z,101013.44
2023-01-08T05:37:47.822Z,101010.94
2023-01-08T05:40:54.711Z,101003.41
2023-01-08T05:44:00.293Z,101010.94
2023-01-08T05:47:05.408Z,101011.81
2023-01-08T05:50:13.537Z,100996.66
2023-01-08T05:53:19.239Z,101010.13
2023-01-08T05:56:24.558Z,101006.75
2023-01-08T05:59:30.090Z,100998.34
2023-01-08T06:02:35.955Z,100997.50
2023-01-08T06:05:43.331Z,100998.31
2023-01-08T06:08:48.398Z,101004.22
2023-01-08T06:11:54.409Z,100992.44
2023-01-08T06:15:00.143Z,100992.44
2023-01-08T06:18:05.794Z,100988.25
2023-01-08T06:21:15.878Z,100985.72
2023-01-08T06:24:21.545Z,100988.28
2023-01-08T06:27:26.831Z,100984.06
2023-01-08T06:30:32.568Z,100977.28
2023-01-08T06:33:38.325Z,100981.50
2023-01-08T06:36:45.558Z,100970.56
2023-01-08T06:39:50.879Z,100968.06
2023-01-08T06:42:56.733Z,100958.78
2023-01-08T06:46:02.062Z,100957.94
2023-01-08T06:49:08.127Z,100948.69
2023-01-08T06:52:17.529Z,100946.97
2023-01-08T06:55:23.621Z,100936.91
2023-01-08T06:58:30.617Z,100941.09
2023-01-08T07:01:35.825Z,100936.91
2023-01-08T07:04:41.664Z,100933.53
2023-01-08T07:07:48.306Z,100944.50
2023-01-08T07:10:53.842Z,100941.06
2023-01-08T07:13:59.553Z,100933.53
2023-01-08T07:17:05.207Z,100936.06
2023-01-08T07:20:13.160Z,100925.94
2023-01-08T07:23:20.163Z,100930.19
2023-01-08T07:26:25.895Z,100932.69
2023-01-08T07:29:31.189Z,100936.06
2023-01-08T07:32:36.809Z,100917.53
2023-01-08T07:35:42.027Z,100921.75
2023-01-08T07:38:49.180Z,100917.53
2023-01-08T07:41:54.484Z,100922.59
2023-01-08T07:45:01.607Z,100904.88
2023-01-08T07:48:07.187Z,100903.22
2023-01-08T07:51:13.276Z,100907.44
2023-01-08T07:54:19.945Z,100910.78
2023-01-08T07:57:25.626Z,100914.19
2023-01-08T08:00:31.522Z,100904.06
2023-01-08T08:03:36.720Z,100906.56
2023-01-08T08:06:42.499Z,100916.69
2023-01-08T08:09:49.476Z,100913.31
2023-01-08T08:12:55.037Z,100918.38
2023-01-08T08:16:03.874Z,100909.09
2023-01-08T08:19:09.712Z,100911.63
2023-01-08T08:22:15.692Z,100903.22
2023-01-08T08:25:22.894Z,100913.34
2023-01-08T08:28:28.107Z,100909.09
2023-01-08T08:31:33.894Z,100904.03
2023-01-08T08:34:39.610Z,100904.03
2023-01-08T08:37:44.809Z,100896.44
2023-01-08T08:40:51.900Z,100893.09
2023-01-08T08:43:57.241Z,100899.84
2023-01-08T08:47:03.241Z,100891.41
2023-01-08T08:50:09.681Z,100884.66
2023-01-08T08:53:16.487Z,100885.47
2023-01-08T08:56:23.633Z,100888.84
2023-01-08T08:59:29.755Z,100886.34
2023-01-08T09:02:35.356Z,100891.38
2023-01-08T09:05:43.355Z,100899.81
2023-01-08T09:08:49.000Z,100892.19
2023-01-08T09:11:56.471Z,100900.63
2023-01-08T09:15:02.328Z,100899.78
2023-01-08T09:18:08.222Z,100884.59
2023-01-08T09:21:14.089Z,100889.66
2023-01-08T09:24:20.454Z,100891.34
2023-01-08T09:27:27.235Z,100868.56
2023-01-08T09:30:34.109Z,100878.66
2023-01-08T09:33:40.350Z,100878.69
2023-01-08T09:36:45.934Z,100880.38
2023-01-08T09:40:01.745Z,100869.38
2023-01-08T09:43:11.847Z,100865.16
2023-01-08T09:47:00.886Z,100859.28
2023-01-08T09:50:09.698Z,100846.59
2023-01-08T09:53:17.455Z,100857.56
2023-01-08T09:56:22.832Z,100860.09
2023-01-08T09:59:30.242Z,100859.31
2023-01-08T10:02:40.431Z,100853.38
2023-01-08T10:05:46.667Z,100849.13
2023-01-08T10:08:52.723Z,100840.69
2023-01-08T10:12:01.310Z,100849.13
2023-01-08T10:15:13.164Z,100828.88
2023-01-08T10:18:21.418Z,100827.19
2023-01-08T10:21:31.529Z,100823.81
2023-01-08T10:24:40.429Z,100823.88
2023-01-08T10:27:50.377Z,100814.53
2023-01-08T10:31:06.861Z,100809.41
2023-01-08T10:34:27.008Z,100808.63
2023-01-08T10:37:36.174Z,100811.16
2023-01-08T10:44:19.533Z,100811.16
2023-01-08T10:47:27.776Z,100804.41
2023-01-08T10:50:34.692Z,100804.44
2023-01-08T10:53:41.458Z,100803.59
2023-01-08T10:56:47.438Z,100796.00
2023-01-08T10:59:53.196Z,100793.50
2023-01-08T11:03:07.069Z,100785.06
2023-01-08T11:06:19.754Z,100779.97
2023-01-08T11:09:26.598Z,100770.72
2023-01-08T11:12:39.073Z,100781.72
2023-01-08T11:15:44.914Z,100770.69
2023-01-08T11:18:54.068Z,100766.47
2023-01-08T11:22:01.695Z,100776.63
2023-01-08T11:25:14.131Z,100772.38
2023-01-08T11:28:23.620Z,100772.38
2023-01-08T11:31:36.408Z,100767.28
2023-01-08T11:34:50.970Z,100767.31
2023-01-08T11:37:59.604Z,100774.06
2023-01-08T11:41:16.304Z,100758.88
2023-01-08T11:44:31.429Z,100779.13
2023-01-08T11:47:52.139Z,100777.47
2023-01-08T11:51:09.748Z,100777.44
2023-01-08T11:54:26.003Z,100771.53
2023-01-08T11:57:40.340Z,100763.09
2023-01-08T12:00:59.128Z,100741.16
2023-01-08T12:04:25.273Z,100741.13
2023-01-08T12:07:38.108Z,100731.84
2023-01-08T12:10:53.572Z,100735.31
2023-01-08T12:14:17.713Z,100729.34
2023-01-08T12:17:40.240Z,100721.75
2023-01-08T12:20:52.548Z,100719.22
2023-01-08T12:24:21.466Z,100726.78
2023-01-08T12:27:55.248Z,100720.06
2023-01-08T12:31:17.644Z,100722.56
2023-01-08T12:34:27.597Z,100720.03
2023-01-08T12:37:37.810Z,100704.88
2023-01-08T12:40:46.876Z,100709.03
2023-01-08T12:43:57.234Z,100693.06
2023-01-08T12:47:05.097Z,100696.44
2023-01-08T12:50:29.290Z,100703.19
2023-01-08T12:53:44.927Z,100709.16
2023-01-08T12:56:56.274Z,100694.66
2023-01-08T13:00:06.190Z,100695.53
2023-01-08T13:03:16.487Z,100681.25
2023-01-08T13:06:22.605Z,100679.59
2023-01-08T13:09:29.177Z,100678.72
2023-01-08T13:12:39.740Z,100677.03
2023-01-08T13:15:45.553Z,100669.47
2023-01-08T13:18:59.127Z,100665.22
2023-01-08T13:22:04.585Z,100666.91
2023-01-08T13:25:30.481Z,100654.28
2023-01-08T13:28:45.728Z,100660.06
2023-01-08T13:31:51.779Z,100654.25
2023-01-08T13:35:12.961Z,100654.25
2023-01-08T13:38:20.181Z,100646.69
2023-01-08T13:41:27.343Z,100651.63
2023-01-08T13:44:35.694Z,100645.81
2023-01-08T13:47:46.530Z,100645.00
2023-01-08T13:50:52.601Z,100638.25
2023-01-08T13:53:58.092Z,100651.66
2023-01-08T13:57:08.905Z,100657.63
2023-01-08T14:00:26.113Z,100642.44
2023-01-08T14:03:45.599Z,100650.91
2023-01-08T14:06:50.960Z,100651.72
2023-01-08T14:10:07.731Z,100633.22
2023-01-08T14:13:18.349Z,100645.84
2023-01-08T14:16:25.840Z,100645.00
2023-01-08T14:19:31.485Z,100643.28
2023-01-08T14:22:38.029Z,100635.75
2023-01-08T14:25:43.777Z,100635.00
2023-01-08T14:28:53.955Z,100634.03
2023-01-08T14:32:02.635Z,100631.59
2023-01-08T14:35:10.411Z,100625.63
2023-01-08T14:38:16.641Z,100631.50
2023-01-08T14:41:49.078Z,100635.81
2023-01-08T14:44:57.236Z,100629.84
2023-01-08T14:48:14.511Z,100625.69
2023-01-08T14:51:31.552Z,100615.56
2023-01-08T14:54:38.092Z,100611.38
2023-01-08T14:57:46.100Z,100613.91
2023-01-08T15:00:55.515Z,100609.66
2023-01-08T15:04:10.712Z,100610.53
2023-01-08T15:07:21.902Z,100612.22
2023-01-08T15:10:40.737Z,100603.78
2023-01-08T15:13:48.469Z,100600.41
2023-01-08T15:16:55.414Z,100605.50
2023-01-08T15:20:03.181Z,100607.19
2023-01-08T15:23:18.079Z,100599.56
2023-01-08T15:26:24.393Z,100593.69
2023-01-08T15:29:33.525Z,100592.00
2023-01-08T15:32:39.972Z,100584.41
2023-01-08T15:35:47.514Z,100587.78
2023-01-08T15:38:53.682Z,100584.44
2023-01-08T15:42:17.343Z,100581.91
2023-01-08T15:45:24.814Z,100591.16
2023-01-08T15:48:30.886Z,100596.22
2023-01-08T15:51:41.525Z,100585.28
2023-01-08T15:54:47.490Z,100579.38
2023-01-08T15:57:55.400Z,100578.63
2023-01-08T16:01:01.029Z,100574.41
2023-01-08T16:04:06.924Z,100571.84
2023-01-08T16:07:14.455Z,100566.84
2023-01-08T16:10:20.926Z,100573.53
2023-01-08T16:13:26.739Z,100572.72
2023-01-08T16:16:32.844Z,100565.13
2023-01-08T16:19:38.561Z,100568.50
2023-01-08T16:22:45.715Z,100565.16
2023-01-08T16:25:51.088Z,100564.31
2023-01-08T16:28:56.720Z,100559.25
2023-01-08T16:32:02.193Z,100560.94
2023-01-08T16:35:08.806Z,100558.41
2023-01-08T16:38:19.692Z,100561.88
2023-01-08T16:41:25.801Z,100560.16
2023-01-08T16:44:32.648Z,100555.91
2023-01-08T16:47:39.825Z,100552.59
2023-01-08T16:50:45.692Z,100559.31
2023-01-08T16:53:53.111Z,100554.25
2023-01-08T16:56:59.251Z,100557.66
2023-01-08T17:00:05.585Z,100554.25
2023-01-08T17:03:14.904Z,100550.06
2023-01-08T17:06:20.755Z,100541.66
2023-01-08T17:09:28.114Z,100545.00
2023-01-08T17:12:33.356Z,100540.81
2023-01-08T17:15:39.123Z,100541.66
2023-01-08T17:18:44.714Z,100523.97
2023-01-08T17:21:52.077Z,100534.91
2023-01-08T17:24:59.321Z,100535.75
2023-01-08T17:28:04.778Z,100526.50
2023-01-08T17:31:11.717Z,100526.50
2023-01-08T17:34:16.932Z,100525.66
2023-01-08T17:37:22.629Z,100522.25
2023-01-08T17:40:29.677Z,100523.09
2023-01-08T17:43:36.591Z,100516.38
2023-01-08T17:46:45.317Z,100502.06
2023-01-08T17:49:51.635Z,100501.19
2023-01-08T17:52:58.935Z,100504.56
2023-01-08T17:56:06.808Z,100500.34
2023-01-08T17:59:16.072Z,100492.75
2023-01-08T18:02:22.062Z,100496.13
2023-01-08T18:05:28.189Z,100491.94
2023-01-08T18:08:34.292Z,100493.56
2023-01-08T18:11:42.224Z,100499.47
2023-01-08T18:14:47.424Z,100485.16
2023-01-08T18:17:53.255Z,100493.56
2023-01-08T18:20:59.056Z,100485.91
2023-01-08T18:24:04.703Z,100478.34
2023-01-08T18:27:12.004Z,100469.06
2023-01-08T18:30:18.026Z,100449.75
2023-01-08T18:33:34.556Z,100446.41
2023-01-08T18:36:39.986Z,100452.31
2023-01-08T18:39:45.664Z,100444.72
2023-01-08T18:42:52.842Z,100441.34
2023-01-08T18:46:01.494Z,100442.91
2023-01-08T18:49:07.899Z,100436.19
2023-01-08T18:52:14.311Z,100436.19
2023-01-08T18:55:20.337Z,100438.78
2023-01-08T18:58:27.179Z,100428.59
2023-01-08T19:01:33.128Z,100423.50
2023-01-08T19:04:38.476Z,100434.47
2023-01-08T19:07:45.006Z,100437.94
2023-01-08T19:10:51.080Z,100428.56
2023-01-08T19:13:58.787Z,100431.97
2023-01-08T19:17:04.800Z,100428.56
2023-01-08T19:20:12.246Z,100424.34
2023-01-08T19:23:20.292Z,100423.53
2023-01-08T19:26:26.169Z,100426.78
2023-01-08T19:29:33.466Z,100420.19
2023-01-08T19:42:46.248Z,100418.44
2023-01-08T19:46:15.722Z,100402.31
2023-01-08T19:49:21.114Z,100408.22
2023-01-08T19:52:28.503Z,100394.78
2023-01-08T19:55:35.992Z,100404.97
2023-01-08T19:58:41.977Z,100401.56
2023-01-08T20:01:49.333Z,100390.56
2023-01-08T20:04:55.465Z,100390.53
2023-01-08T20:08:00.815Z,100395.50
2023-01-08T20:11:10.903Z,100388.91
2023-01-08T20:14:17.091Z,100385.44
2023-01-08T20:17:25.569Z,100378.63
2023-01-08T20:20:31.235Z,100379.50
2023-01-08T20:23:37.531Z,100379.53
2023-01-08T20:26:44.125Z,100374.44
2023-01-08T20:29:50.315Z,100372.91
2023-01-08T20:32:57.622Z,100380.38
2023-01-08T20:36:03.125Z,100374.44
2023-01-08T20:39:10.339Z,100370.09
2023-01-08T20:42:21.965Z,100370.22
2023-01-08T20:45:33.358Z,100367.72
2023-01-08T20:48:47.033Z,100369.34
2023-01-08T20:51:59.231Z,100361.75
2023-01-08T20:55:06.135Z,100364.28
2023-01-08T20:58:12.005Z,100356.72
2023-01-08T21:01:20.389Z,100356.75
2023-01-08T21:04:27.368Z,100348.38
2023-01-08T21:07:33.484Z,100350.06
2023-01-08T21:10:38.981Z,100346.75
2023-01-08T21:13:47.125Z,100343.44
2023-01-08T21:16:52.679Z,100344.31
2023-01-08T21:20:00.038Z,100335.88
2023-01-08T21:23:05.598Z,100340.84
2023-01-08T21:26:13.402Z,100346.84
2023-01-08T21:29:21.193Z,100324.91
2023-01-08T21:32:27.443Z,100318.13
2023-01-08T21:35:35.546Z,100327.41
2023-01-08T21:38:41.475Z,100318.94
2023-01-08T21:42:04.088Z,100314.81
2023-01-08T21:45:29.921Z,100319.81
2023-01-08T21:48:35.631Z,100311.38
2023-01-08T21:52:00.703Z,100325.69
2023-01-08T21:55:06.552Z,100311.41
2023-01-08T21:58:12.889Z,100308.00
2023-01-08T22:01:18.770Z,100307.16
2023-01-08T22:04:24.372Z,100308.91
2023-01-08T22:07:31.592Z,100301.31
2023-01-08T22:10:37.217Z,100305.47
2023-01-08T22:13:42.939Z,100302.97
2023-01-08T22:16:48.682Z,100284.47
2023-01-08T22:19:54.324Z,100292.06
2023-01-08T22:23:01.691Z,100295.41
2023-01-08T22:26:08.298Z,100297.13
2023-01-08T22:29:14.775Z,100298.84
2023-01-08T22:32:20.132Z,100295.47
2023-01-08T22:35:26.016Z,100291.28
2023-01-08T22:38:33.345Z,100296.25
2023-01-08T22:41:39.003Z,100285.41
2023-01-08T22:44:44.354Z,100288.81
2023-01-08T22:47:50.403Z,100296.41
2023-01-08T22:50:56.237Z,100287.09
2023-01-08T22:54:03.157Z,100285.41
2023-01-08T22:57:09.819Z,100280.38
2023-01-08T23:00:16.896Z,100282.13
2023-01-08T23:03:22.851Z,100285.53
2023-01-08T23:06:29.423Z,100278.72
2023-01-08T23:09:36.697Z,100282.13
2023-01-08T23:12:42.071Z,100286.31
2023-01-08T23:15:47.786Z,100275.38
2023-01-08T23:18:53.274Z,100267.91
2023-01-08T23:21:59.003Z,100271.97
2023-01-08T23:25:06.307Z,100271.13
2023-01-08T23:28:14.230Z,100277.03
2023-01-08T23:31:21.203Z,100276.22
2023-01-08T23:34:27.129Z,100262.75
2023-01-08T23:37:33.260Z,100259.38
2023-01-08T23:40:44.447Z,100271.16
2023-01-08T23:43:50.407Z,100256.75
2023-01-08T23:46:55.784Z,100248.31
2023-01-08T23:50:01.663Z,100245.81
2023-01-08T23:53:07.413Z,100252.59
2023-01-08T23:56:16.550Z,100261.00
2023-01-08T23:59:22.359Z,100256.75
